Time;durP1;ratioP1;P1;durP2;ratioP2;P2;SDS_P1;SDS_P2;PMS_P1;PMS_P2;Temp;Humidity;BMP_temperature;BMP_pressure;BME280_temperature;BME280_humidity;BME280_pressure;Samples;Min_cycle;Max_cycle;Signal;HPM_P1;HPM_P2
2023/04/28 00:00:08;;;;;;;;;;;;;;;;;;4331729;33;19935;-79
2023/04/28 00:02:33;;;;;;;;;;;;;;;;;;4331072;33;19943;-79
2023/04/28 00:04:59;;;;;;;;;;;;;;;;;;4331619;33;20237;-79
2023/04/28 00:07:24;;;;;;;;;;;;;;;;;;4342525;33;19946;-79
2023/04/28 00:09:49;;;;;;;;;;;;;;;;;;4332867;33;19935;-80
2023/04/28 00:12:14;;;;;;;;;;;;;;;;;;4331842;33;19971;-79
2023/04/28 00:14:39;;;;;;;;;;;;;;;;;;4331389;33;19944;-79
2023/04/28 00:17:04;;;;;;;;;;;;;;;;;;4334186;33;19975;-79
2023/04/28 00:19:29;;;;;;;;;;;;;;;;;;4332631;33;20316;-79
2023/04/28 00:21:54;;;;;;;;;;;;;;;;;;4343273;33;19971;-79
2023/04/28 00:24:20;;;;;;;;;;;;;;;;;;4331300;33;20321;-79
2023/04/28 00:26:45;;;;;;;;;;;;;;;;;;4342116;33;19975;-79
2023/04/28 00:29:10;;;;;;;;;;;;;;;;;;4331630;33;20309;-78
2023/04/28 00:31:35;;;;;;;;;;;;;;;;;;4330797;33;19959;-78
2023/04/28 00:34:00;;;;;;;;;;;;;;;;;;4343776;33;19939;-77
2023/04/28 00:36:25;;;;;;;;;;;;;;;;;;4331457;33;20002;-79
2023/04/28 00:38:50;;;;;;;;;;;;;;;;;;4342192;33;19954;-79
2023/04/28 00:41:15;;;;;;;;;;;;;;;;;;4341936;33;19939;-78
2023/04/28 00:43:40;;;;;;;;;;;;;;;;;;4331383;33;19974;-78
2023/04/28 00:46:06;;;;;;;;;;;;;;;;;;4331423;33;19939;-79
2023/04/28 00:48:31;;;;;;;;;;;;;;;;;;4331319;33;19959;-79
2023/04/28 00:50:56;;;;;;;;;;;;;;;;;;4342172;33;20284;-79
2023/04/28 00:53:21;;;;;;;;;;;;;;;;;;4331105;33;19950;-79
2023/04/28 00:55:46;;;;;;;;;;;;;;;;;;4331567;33;19935;-79
2023/04/28 00:58:11;;;;;;;;;;;;;;;;;;4332815;33;20001;-80
2023/04/28 01:00:36;;;;;;;;;;;;;;;;;;4344535;33;19975;-79
2023/04/28 01:03:01;;;;;;;;;;;;;;;;;;4334488;33;19982;-80
2023/04/28 01:05:26;;;;;;;;;;;;;;;;;;4334075;33;19940;-79
2023/04/28 01:07:51;;;;;;;;;;;;;;;;;;4334906;33;19973;-79
2023/04/28 01:10:17;;;;;;;;;;;;;;;;;;4346697;33;20035;-79
2023/04/28 01:12:42;;;;;;;;;;;;;;;;;;4334272;33;20280;-79
2023/04/28 01:15:07;;;;;;;;;;;;;;;;;;4334021;33;20312;-79
2023/04/28 01:17:32;;;;;;;;;;;;;;;;;;4335409;33;19954;-80
2023/04/28 01:19:57;;;;;;;;;;;;;;;;;;4338289;33;19955;-79
2023/04/28 01:22:22;;;;;;;;;;;;;;;;;;4341980;33;19931;-79
2023/04/28 01:24:47;;;;;;;;;;;;;;;;;;4355571;33;19923;-78
2023/04/28 01:27:12;;;;;;;;;;;;;;;;;;4338292;33;19954;-78
2023/04/28 01:29:37;;;;;;;;;;;;;;;;;;4346129;33;20355;-78
2023/04/28 01:32:02;;;;;;;;;;;;;;;;;;4334671;33;19939;-78
2023/04/28 01:34:27;;;;;;;;;;;;;;;;;;4347127;33;19939;-77
2023/04/28 01:36:53;;;;;;;;;;;;;;;;;;4348477;33;19997;-77
2023/04/28 01:39:18;;;;;;;;;;;;;;;;;;4349682;33;19928;-78
2023/04/28 01:41:43;;;;;;;;;;;;;;;;;;4349865;33;19929;-77
2023/04/28 01:44:08;;;;;;;;;;;;;;;;;;4350310;33;19954;-78
2023/04/28 01:46:33;;;;;;;;;;;;;;;;;;4348667;33;19982;-78
2023/04/28 01:48:58;;;;;;;;;;;;;;;;;;4346119;33;19927;-78
2023/04/28 01:51:23;;;;;;;;;;;;;;;;;;4355886;33;19942;-79
2023/04/28 01:53:48;;;;;;;;;;;;;;;;;;4366487;33;19920;-77
2023/04/28 01:56:14;;;;;;;;;;;;;;;;;;4373114;32;20001;-78
2023/04/28 01:58:39;;;;;;;;;;;;;;;;;;4372819;32;19993;-77
2023/04/28 02:01:04;;;;;;;;;;;;;;;;;;4368002;32;19970;-79
2023/04/28 02:03:29;;;;;;;;;;;;;;;;;;4333350;33;19948;-79
2023/04/28 02:05:54;;;;;;;;;;;;;;;;;;4356295;32;20025;-79
2023/04/28 02:08:19;;;;;;;;;;;;;;;;;;4357850;32;19935;-79
2023/04/28 02:10:45;;;;;;;;;;;;;;;;;;4358332;32;19939;-79
2023/04/28 02:13:10;;;;;;;;;;;;;;;;;;4357338;32;19950;-79
2023/04/28 02:15:35;;;;;;;;;;;;;;;;;;4333264;33;19949;-79
2023/04/28 02:18:00;;;;;;;;;;;;;;;;;;4333481;33;19943;-79
2023/04/28 02:20:26;;;;;;;;;;;;;;;;;;4359375;32;19954;-79
2023/04/28 02:22:51;;;;;;;;;;;;;;;;;;4339909;33;19931;-78
2023/04/28 02:25:16;;;;;;;;;;;;;;;;;;4367690;32;19935;-78
2023/04/28 02:27:42;;;;;;;;;;;;;;;;;;4336991;33;19935;-78
2023/04/28 02:30:07;;;;;;;;;;;;;;;;;;4334081;33;19944;-79
2023/04/28 02:32:32;;;;;;;;;;;;;;;;;;4333369;33;20281;-79
2023/04/28 02:34:57;;;;;;;;;;;;;;;;;;4356169;32;20296;-79
2023/04/28 02:37:22;;;;;;;;;;;;;;;;;;4333189;33;20268;-79
2023/04/28 02:39:47;;;;;;;;;;;;;;;;;;4355623;32;19981;-79
2023/04/28 02:42:13;;;;;;;;;;;;;;;;;;4333272;33;19947;-79
2023/04/28 02:44:38;;;;;;;;;;;;;;;;;;4357042;32;19977;-79
2023/04/28 02:47:03;;;;;;;;;;;;;;;;;;4355920;32;20257;-79
2023/04/28 02:49:28;;;;;;;;;;;;;;;;;;4332898;33;20015;-79
2023/04/28 02:51:53;;;;;;;;;;;;;;;;;;4333658;33;20225;-79
2023/04/28 02:54:26;;;;;;;;;;;;;;;;;;4332728;33;19939;-80
2023/04/28 02:56:51;;;;;;;;;;;;;;;;;;4344944;33;19974;-79
2023/04/28 02:59:16;;;;;;;;;;;;;;;;;;4333505;33;19939;-79
2023/04/28 03:01:41;;;;;;;;;;;;;;;;;;4332348;33;19939;-79
2023/04/28 03:04:07;;;;;;;;;;;;;;;;;;4334014;33;19935;-79
2023/04/28 03:06:32;;;;;;;;;;;;;;;;;;4332215;33;19943;-79
2023/04/28 03:08:57;;;;;;;;;;;;;;;;;;4332475;33;19951;-79
2023/04/28 03:11:22;;;;;;;;;;;;;;;;;;4334464;33;19935;-79
2023/04/28 03:13:48;;;;;;;;;;;;;;;;;;4340243;33;19970;-79
2023/04/28 03:16:13;;;;;;;;;;;;;;;;;;4340893;33;19943;-80
2023/04/28 03:18:38;;;;;;;;;;;;;;;;;;4337062;33;20331;-80
2023/04/28 03:21:03;;;;;;;;;;;;;;;;;;4345286;33;19935;-78
2023/04/28 03:23:28;;;;;;;;;;;;;;;;;;4332681;33;19935;-79
2023/04/28 03:25:53;;;;;;;;;;;;;;;;;;4343522;33;20410;-78
2023/04/28 03:28:18;;;;;;;;;;;;;;;;;;4332573;33;19935;-79
2023/04/28 03:30:43;;;;;;;;;;;;;;;;;;4331740;33;19957;-79
2023/04/28 03:33:08;;;;;;;;;;;;;;;;;;4343857;33;19977;-79
2023/04/28 03:35:34;;;;;;;;;;;;;;;;;;4331661;33;19991;-79
2023/04/28 03:37:59;;;;;;;;;;;;;;;;;;4332219;33;19986;-79
2023/04/28 03:40:24;;;;;;;;;;;;;;;;;;4342737;33;20002;-79
2023/04/28 03:42:49;;;;;;;;;;;;;;;;;;4332209;33;19943;-79
2023/04/28 03:45:15;;;;;;;;;;;;;;;;;;4343203;33;19954;-79
2023/04/28 03:47:40;;;;;;;;;;;;;;;;;;4342735;33;19950;-79
2023/04/28 03:50:05;;;;;;;;;;;;;;;;;;4331313;33;19998;-79
2023/04/28 03:52:31;;;;;;;;;;;;;;;;;;4342516;33;19991;-79
2023/04/28 03:54:56;;;;;;;;;;;;;;;;;;4353934;33;20006;-80
2023/04/28 03:57:21;;;;;;;;;;;;;;;;;;4331432;33;19934;-79
2023/04/28 03:59:46;;;;;;;;;;;;;;;;;;4331010;33;19949;-79
2023/04/28 04:02:11;;;;;;;;;;;;;;;;;;4331491;33;19953;-79
2023/04/28 04:04:36;;;;;;;;;;;;;;;;;;4331046;33;20269;-79
2023/04/28 04:07:01;;;;;;;;;;;;;;;;;;4331083;33;19943;-79
2023/04/28 04:09:27;;;;;;;;;;;;;;;;;;4331411;33;19986;-79
2023/04/28 04:11:52;;;;;;;;;;;;;;;;;;4331022;33;19943;-79
2023/04/28 04:14:17;;;;;;;;;;;;;;;;;;4354547;32;19991;-78
2023/04/28 04:16:42;;;;;;;;;;;;;;;;;;4331649;33;19955;-79
2023/04/28 04:19:07;;;;;;;;;;;;;;;;;;4355808;32;19951;-79
2023/04/28 04:21:32;;;;;;;;;;;;;;;;;;4331373;33;19983;-78
2023/04/28 04:23:57;;;;;;;;;;;;;;;;;;4331499;33;19936;-79
2023/04/28 04:26:22;;;;;;;;;;;;;;;;;;4355030;32;19959;-79
2023/04/28 04:28:47;;;;;;;;;;;;;;;;;;4356620;32;19995;-79
2023/04/28 04:31:13;;;;;;;;;;;;;;;;;;4357699;32;19943;-79
2023/04/28 04:33:38;;;;;;;;;;;;;;;;;;4330767;33;19959;-78
2023/04/28 04:36:03;;;;;;;;;;;;;;;;;;4331175;33;19950;-78
2023/04/28 04:38:28;;;;;;;;;;;;;;;;;;4330961;33;19948;-78
2023/04/28 04:40:53;;;;;;;;;;;;;;;;;;4331607;33;20353;-78
2023/04/28 04:43:19;;;;;;;;;;;;;;;;;;4331979;33;19943;-78
2023/04/28 04:45:44;;;;;;;;;;;;;;;;;;4331161;33;19988;-78
2023/04/28 04:48:10;;;;;;;;;;;;;;;;;;4330972;33;19950;-79
2023/04/28 04:50:35;;;;;;;;;;;;;;;;;;4354778;32;19943;-79
2023/04/28 04:53:00;;;;;;;;;;;;;;;;;;4354237;32;20265;-79
2023/04/28 04:55:25;;;;;;;;;;;;;;;;;;4331657;33;20336;-79
2023/04/28 04:57:51;;;;;;;;;;;;;;;;;;4330757;33;19970;-78
2023/04/28 05:00:16;;;;;;;;;;;;;;;;;;4331585;33;19983;-77
2023/04/28 05:02:41;;;;;;;;;;;;;;;;;;4342052;33;19950;-78
2023/04/28 05:05:06;;;;;;;;;;;;;;;;;;4333148;33;19978;-79
2023/04/28 05:07:31;;;;;;;;;;;;;;;;;;4335007;33;19974;-78
2023/04/28 05:09:57;;;;;;;;;;;;;;;;;;4344345;33;20333;-80
2023/04/28 05:12:22;;;;;;;;;;;;;;;;;;4332403;33;19943;-78
2023/04/28 05:14:47;;;;;;;;;;;;;;;;;;4330852;33;19939;-79
2023/04/28 05:17:12;;;;;;;;;;;;;;;;;;4343172;33;19958;-78
2023/04/28 05:19:37;;;;;;;;;;;;;;;;;;4334316;33;19943;-78
2023/04/28 05:22:02;;;;;;;;;;;;;;;;;;4343170;33;19939;-79
2023/04/28 05:24:27;;;;;;;;;;;;;;;;;;4335387;33;19951;-78
2023/04/28 05:26:53;;;;;;;;;;;;;;;;;;4336419;33;19973;-79
2023/04/28 05:29:18;;;;;;;;;;;;;;;;;;4343995;33;19953;-79
2023/04/28 05:31:43;;;;;;;;;;;;;;;;;;4338840;33;19936;-79
2023/04/28 05:34:08;;;;;;;;;;;;;;;;;;4333637;33;19936;-80
2023/04/28 05:36:33;;;;;;;;;;;;;;;;;;4332786;33;19973;-79
2023/04/28 05:38:59;;;;;;;;;;;;;;;;;;4330431;33;19943;-79
2023/04/28 05:41:24;;;;;;;;;;;;;;;;;;4341646;33;19966;-79
2023/04/28 05:43:50;;;;;;;;;;;;;;;;;;4341890;33;19939;-79
2023/04/28 05:46:15;;;;;;;;;;;;;;;;;;4332574;33;20308;-80
2023/04/28 05:48:40;;;;;;;;;;;;;;;;;;4344609;33;20038;-80
2023/04/28 05:51:05;;;;;;;;;;;;;;;;;;4333277;33;19975;-79
2023/04/28 05:53:30;;;;;;;;;;;;;;;;;;4346781;33;19943;-79
2023/04/28 05:55:55;;;;;;;;;;;;;;;;;;4334245;33;20017;-79
2023/04/28 05:58:20;;;;;;;;;;;;;;;;;;4332684;33;19939;-78
2023/04/28 06:00:45;;;;;;;;;;;;;;;;;;4332740;33;20051;-76
2023/04/28 06:03:13;;;;;;;;;;;;;;;;;;4332524;33;19970;-75
2023/04/28 06:05:38;;;;;;;;;;;;;;;;;;4332911;33;20001;-75
2023/04/28 06:08:03;;;;;;;;;;;;;;;;;;4334136;33;19947;-76
2023/04/28 06:10:28;;;;;;;;;;;;;;;;;;4332666;33;19981;-76
2023/04/28 06:12:54;;;;;;;;;;;;;;;;;;4332723;33;20027;-76
2023/04/28 06:15:19;;;;;;;;;;;;;;;;;;4332596;33;20290;-76
2023/04/28 06:17:44;;;;;;;;;;;;;;;;;;4333165;33;19975;-76
2023/04/28 06:20:11;;;;;;;;;;;;;;;;;;4332392;33;19939;-75
2023/04/28 06:22:36;;;;;;;;;;;;;;;;;;4343675;32;19939;-76
2023/04/28 06:25:01;;;;;;;;;;;;;;;;;;4332828;33;20009;-76
2023/04/28 06:27:26;;;;;;;;;;;;;;;;;;4336314;33;19935;-76
2023/04/28 06:29:51;;;;;;;;;;;;;;;;;;4333574;33;19935;-76
2023/04/28 06:32:16;;;;;;;;;;;;;;;;;;4333659;33;19957;-76
2023/04/28 06:34:41;;;;;;;;;;;;;;;;;;4334670;33;19935;-76
2023/04/28 06:37:06;;;;;;;;;;;;;;;;;;4336907;33;19969;-78
2023/04/28 06:39:32;;;;;;;;;;;;;;;;;;4334297;33;19985;-78
2023/04/28 06:41:57;;;;;;;;;;;;;;;;;;4332393;33;19977;-77
2023/04/28 06:44:22;;;;;;;;;;;;;;;;;;4334120;33;19978;-76
2023/04/28 06:46:47;;;;;;;;;;;;;;;;;;4332683;33;19957;-77
2023/04/28 06:49:12;;;;;;;;;;;;;;;;;;4332028;33;19949;-77
2023/04/28 06:51:37;;;;;;;;;;;;;;;;;;4332957;33;20067;-77
2023/04/28 06:54:02;;;;;;;;;;;;;;;;;;4332062;33;19946;-78
2023/04/28 06:56:27;;;;;;;;;;;;;;;;;;4332507;33;19973;-79
2023/04/28 06:58:52;;;;;;;;;;;;;;;;;;4342994;33;20312;-77
2023/04/28 07:01:18;;;;;;;;;;;;;;;;;;4332295;33;19985;-78
2023/04/28 07:03:43;;;;;;;;;;;;;;;;;;4343322;33;19939;-77
2023/04/28 07:06:08;;;;;;;;;;;;;;;;;;4332937;33;19935;-77
2023/04/28 07:08:33;;;;;;;;;;;;;;;;;;4343043;33;19943;-78
2023/04/28 07:10:58;;;;;;;;;;;;;;;;;;4332285;33;19954;-78
2023/04/28 07:13:24;;;;;;;;;;;;;;;;;;4344183;33;19954;-78
2023/04/28 07:15:49;;;;;;;;;;;;;;;;;;4332286;33;19991;-79
2023/04/28 07:18:14;;;;;;;;;;;;;;;;;;4343510;33;19998;-79
2023/04/28 07:20:39;;;;;;;;;;;;;;;;;;4331589;33;19943;-79
2023/04/28 07:23:04;;;;;;;;;;;;;;;;;;4333128;33;19935;-79
2023/04/28 07:25:29;;;;;;;;;;;;;;;;;;4332232;33;19951;-80
2023/04/28 07:27:55;;;;;;;;;;;;;;;;;;4342962;33;20485;-80
2023/04/28 07:30:20;;;;;;;;;;;;;;;;;;4332152;33;19986;-79
2023/04/28 07:32:46;;;;;;;;;;;;;;;;;;4331670;33;19935;-79
2023/04/28 07:35:11;;;;;;;;;;;;;;;;;;4343667;33;19950;-79
2023/04/28 07:37:36;;;;;;;;;;;;;;;;;;4332399;33;20242;-79
2023/04/28 07:40:01;;;;;;;;;;;;;;;;;;4343174;33;19939;-79
2023/04/28 07:42:26;;;;;;;;;;;;;;;;;;4333177;33;19983;-78
2023/04/28 07:44:51;;;;;;;;;;;;;;;;;;4349140;33;19943;-78
2023/04/28 07:47:16;;;;;;;;;;;;;;;;;;4340754;33;20039;-79
2023/04/28 07:49:42;;;;;;;;;;;;;;;;;;4343013;33;19936;-79
2023/04/28 07:52:07;;;;;;;;;;;;;;;;;;4339781;33;19976;-79
2023/04/28 07:54:32;;;;;;;;;;;;;;;;;;4334763;33;20061;-80
2023/04/28 07:56:57;;;;;;;;;;;;;;;;;;4332592;33;19949;-79
2023/04/28 07:59:22;;;;;;;;;;;;;;;;;;4331918;33;19939;-79
2023/04/28 08:01:47;;;;;;;;;;;;;;;;;;4331344;33;19947;-79
2023/04/28 08:04:12;;;;;;;;;;;;;;;;;;4331298;33;19936;-79
2023/04/28 08:06:38;;;;;;;;;;;;;;;;;;4331603;33;19978;-79
2023/04/28 08:09:06;;;;;;;;;;;;;;;;;;4342428;33;19953;-80
2023/04/28 08:11:32;;;;;;;;;;;;;;;;;;4345804;33;19966;-79
2023/04/28 08:14:00;;;;;;;;;;;;;;;;;;4346065;33;19935;-78
2023/04/28 08:16:26;;;;;;;;;;;;;;;;;;4356793;33;19935;-78
2023/04/28 08:18:51;;;;;;;;;;;;;;;;;;4357120;32;19943;-80
2023/04/28 08:21:16;;;;;;;;;;;;;;;;;;4346061;33;20287;-79
2023/04/28 08:23:41;;;;;;;;;;;;;;;;;;4345995;33;20296;-79
2023/04/28 08:26:06;;;;;;;;;;;;;;;;;;4357101;32;19992;-80
2023/04/28 08:28:32;;;;;;;;;;;;;;;;;;4357632;33;19958;-79
2023/04/28 08:30:58;;;;;;;;;;;;;;;;;;4348360;33;20237;-80
2023/04/28 08:33:23;;;;;;;;;;;;;;;;;;4358006;33;19957;-79
2023/04/28 08:35:49;;;;;;;;;;;;;;;;;;4357898;33;19949;-79
2023/04/28 08:38:16;;;;;;;;;;;;;;;;;;4346969;33;19946;-79
2023/04/28 08:40:41;;;;;;;;;;;;;;;;;;4360647;33;20295;-80
2023/04/28 08:43:09;;;;;;;;;;;;;;;;;;4348773;33;19943;-80
2023/04/28 08:45:34;;;;;;;;;;;;;;;;;;4347749;33;20267;-80
2023/04/28 08:47:59;;;;;;;;;;;;;;;;;;4346630;33;19944;-79
2023/04/28 08:50:25;;;;;;;;;;;;;;;;;;4357885;33;19970;-81
2023/04/28 08:52:50;;;;;;;;;;;;;;;;;;4357810;33;19941;-80
2023/04/28 08:55:16;;;;;;;;;;;;;;;;;;4346260;33;19939;-80
2023/04/28 08:57:41;;;;;;;;;;;;;;;;;;4346719;33;19994;-80
2023/04/28 09:00:06;;;;;;;;;;;;;;;;;;4346512;33;19962;-80
2023/04/28 09:02:31;;;;;;;;;;;;;;;;;;4346586;33;19982;-80
2023/04/28 09:04:56;;;;;;;;;;;;;;;;;;4347673;33;19939;-80
2023/04/28 09:07:22;;;;;;;;;;;;;;;;;;4358032;33;20026;-81
2023/04/28 09:09:47;;;;;;;;;;;;;;;;;;4358958;33;19950;-79
2023/04/28 09:12:12;;;;;;;;;;;;;;;;;;4349737;33;19942;-80
2023/04/28 09:14:37;;;;;;;;;;;;;;;;;;4347026;33;19939;-79
2023/04/28 09:17:02;;;;;;;;;;;;;;;;;;4345815;33;19943;-78
2023/04/28 09:19:27;;;;;;;;;;;;;;;;;;4345342;33;19953;-79
2023/04/28 09:21:52;;;;;;;;;;;;;;;;;;4348434;33;19946;-79
2023/04/28 09:24:17;;;;;;;;;;;;;;;;;;4347984;33;20342;-79
2023/04/28 09:26:42;;;;;;;;;;;;;;;;;;4348096;33;19961;-78
2023/04/28 09:29:08;;;;;;;;;;;;;;;;;;4348894;33;19947;-79
2023/04/28 09:31:39;;;;;;;;;;;;;;;;;;4349569;33;19974;-79
2023/04/28 09:34:05;;;;;;;;;;;;;;;;;;4349216;32;19973;-80
2023/04/28 09:36:31;;;;;;;;;;;;;;;;;;4348263;33;19939;-80
2023/04/28 09:38:56;;;;;;;;;;;;;;;;;;4348706;33;20002;-80
2023/04/28 09:41:21;;;;;;;;;;;;;;;;;;4359964;32;19973;-80
2023/04/28 09:43:46;;;;;;;;;;;;;;;;;;4359724;32;19942;-79
2023/04/28 09:46:12;;;;;;;;;;;;;;;;;;4359863;32;19939;-79
2023/04/28 09:48:37;;;;;;;;;;;;;;;;;;4359300;32;19987;-79
2023/04/28 09:51:02;;;;;;;;;;;;;;;;;;4348642;33;19942;-79
2023/04/28 09:53:27;;;;;;;;;;;;;;;;;;4349357;33;20055;-80
2023/04/28 09:55:52;;;;;;;;;;;;;;;;;;4353681;33;19985;-80
2023/04/28 09:58:17;;;;;;;;;;;;;;;;;;4356505;33;19993;-79
2023/04/28 10:00:43;;;;;;;;;;;;;;;;;;4362580;33;19935;-81
2023/04/28 10:03:08;;;;;;;;;;;;;;;;;;4365484;32;19941;-80
2023/04/28 10:05:33;;;;;;;;;;;;;;;;;;4362265;33;19937;-80
2023/04/28 10:07:59;;;;;;;;;;;;;;;;;;4366269;32;19939;-81
2023/04/28 10:10:26;;;;;;;;;;;;;;;;;;4371374;32;20052;-78
2023/04/28 10:12:51;;;;;;;;;;;;;;;;;;4370534;32;19935;-78
2023/04/28 10:15:16;;;;;;;;;;;;;;;;;;4359024;33;19949;-80
2023/04/28 10:17:41;;;;;;;;;;;;;;;;;;4369771;33;19949;-79
2023/04/28 10:20:07;;;;;;;;;;;;;;;;;;4357238;33;19931;-78
2023/04/28 10:22:32;;;;;;;;;;;;;;;;;;4355321;33;19939;-78
2023/04/28 10:24:57;;;;;;;;;;;;;;;;;;4357520;33;19938;-79
2023/04/28 10:27:23;;;;;;;;;;;;;;;;;;4353259;33;19939;-78
2023/04/28 10:29:48;;;;;;;;;;;;;;;;;;4356525;33;19966;-79
2023/04/28 10:32:13;;;;;;;;;;;;;;;;;;4360846;33;19943;-79
2023/04/28 10:34:38;;;;;;;;;;;;;;;;;;4373116;32;19972;-80
2023/04/28 10:37:03;;;;;;;;;;;;;;;;;;4354426;33;20315;-79
2023/04/28 10:39:29;;;;;;;;;;;;;;;;;;4361883;32;19951;-80
2023/04/28 10:41:54;;;;;;;;;;;;;;;;;;4364615;32;19947;-79
2023/04/28 10:44:19;;;;;;;;;;;;;;;;;;4351001;33;19988;-79
2023/04/28 10:46:44;;;;;;;;;;;;;;;;;;4351932;33;19958;-79
2023/04/28 10:49:10;;;;;;;;;;;;;;;;;;4361568;32;19973;-79
2023/04/28 10:51:35;;;;;;;;;;;;;;;;;;4348575;33;20133;-81
2023/04/28 10:54:00;;;;;;;;;;;;;;;;;;4352090;32;19949;-80
2023/04/28 10:56:25;;;;;;;;;;;;;;;;;;4348392;33;20008;-80
2023/04/28 10:58:50;;;;;;;;;;;;;;;;;;4347700;33;19981;-79
2023/04/28 11:01:16;;;;;;;;;;;;;;;;;;4349119;33;19989;-80
2023/04/28 11:03:41;;;;;;;;;;;;;;;;;;4346984;33;19939;-80
2023/04/28 11:06:06;;;;;;;;;;;;;;;;;;4347844;33;19961;-79
2023/04/28 11:08:32;;;;;;;;;;;;;;;;;;4346779;33;19935;-80
2023/04/28 11:10:57;;;;;;;;;;;;;;;;;;4346923;33;19939;-80
2023/04/28 11:13:22;;;;;;;;;;;;;;;;;;4345489;33;19938;-80
2023/04/28 11:15:47;;;;;;;;;;;;;;;;;;4345596;33;19990;-80
2023/04/28 11:18:12;;;;;;;;;;;;;;;;;;4346492;33;19978;-80
2023/04/28 11:20:37;;;;;;;;;;;;;;;;;;4346436;33;19939;-79
2023/04/28 11:23:02;;;;;;;;;;;;;;;;;;4346082;33;19951;-79
2023/04/28 11:25:27;;;;;;;;;;;;;;;;;;4347398;33;19935;-80
2023/04/28 11:27:52;;;;;;;;;;;;;;;;;;4345490;33;19969;-81
2023/04/28 11:30:18;;;;;;;;;;;;;;;;;;4346166;33;19953;-81
2023/04/28 11:32:43;;;;;;;;;;;;;;;;;;4350308;32;20023;-81
2023/04/28 11:35:08;;;;;;;;;;;;;;;;;;4355290;33;19939;-82
2023/04/28 11:37:33;;;;;;;;;;;;;;;;;;4346251;33;19953;-83
2023/04/28 11:39:58;;;;;;;;;;;;;;;;;;4348115;33;19974;-83
2023/04/28 11:42:26;;;;;;;;;;;;;;;;;;4350888;33;19935;-84
2023/04/28 11:44:51;;;;;;;;;;;;;;;;;;4349218;33;19931;-82
2023/04/28 11:47:16;;;;;;;;;;;;;;;;;;4350608;33;19954;-81
2023/04/28 11:49:42;;;;;;;;;;;;;;;;;;4347368;33;19942;-81
2023/04/28 11:52:07;;;;;;;;;;;;;;;;;;4348133;33;20330;-82
2023/04/28 11:54:32;;;;;;;;;;;;;;;;;;4351661;33;20264;-80
2023/04/28 11:56:57;;;;;;;;;;;;;;;;;;4357471;32;20280;-78
2023/04/28 11:59:23;;;;;;;;;;;;;;;;;;4346368;33;19961;-78
2023/04/28 12:01:48;;;;;;;;;;;;;;;;;;4357333;32;19942;-78
2023/04/28 12:04:13;;;;;;;;;;;;;;;;;;4357292;32;19943;-77
2023/04/28 12:06:38;;;;;;;;;;;;;;;;;;4357044;32;19939;-77
2023/04/28 12:09:05;;;;;;;;;;;;;;;;;;4346119;33;19953;-78
2023/04/28 12:11:31;;;;;;;;;;;;;;;;;;4356778;32;19931;-78
2023/04/28 12:13:56;;;;;;;;;;;;;;;;;;4345665;33;20019;-79
2023/04/28 12:16:22;;;;;;;;;;;;;;;;;;4357244;32;19939;-78
2023/04/28 12:18:47;;;;;;;;;;;;;;;;;;4346096;33;20008;-79
2023/04/28 12:21:13;;;;;;;;;;;;;;;;;;4346720;32;19939;-79
2023/04/28 12:23:38;;;;;;;;;;;;;;;;;;4349301;33;19935;-78
2023/04/28 12:26:03;;;;;;;;;;;;;;;;;;4361456;32;19980;-79
2023/04/28 12:28:28;;;;;;;;;;;;;;;;;;4346375;33;19961;-78
2023/04/28 12:30:54;;;;;;;;;;;;;;;;;;4346158;33;19939;-80
2023/04/28 12:33:19;;;;;;;;;;;;;;;;;;4357244;32;20213;-78
2023/04/28 12:35:44;;;;;;;;;;;;;;;;;;4357186;32;19974;-79
2023/04/28 12:38:09;;;;;;;;;;;;;;;;;;4357108;32;19946;-80
2023/04/28 12:40:34;;;;;;;;;;;;;;;;;;4345599;33;19935;-80
2023/04/28 12:43:00;;;;;;;;;;;;;;;;;;4356577;32;19943;-78
2023/04/28 12:45:25;;;;;;;;;;;;;;;;;;4358068;32;19977;-79
2023/04/28 12:47:50;;;;;;;;;;;;;;;;;;4358684;32;20252;-78
2023/04/28 12:50:15;;;;;;;;;;;;;;;;;;4345540;33;19973;-79
2023/04/28 12:52:40;;;;;;;;;;;;;;;;;;4346100;33;19946;-78
2023/04/28 12:55:05;;;;;;;;;;;;;;;;;;4348155;33;19997;-79
2023/04/28 12:57:31;;;;;;;;;;;;;;;;;;4349242;33;20272;-79
2023/04/28 12:59:56;;;;;;;;;;;;;;;;;;4348941;33;20005;-78
2023/04/28 13:02:21;;;;;;;;;;;;;;;;;;4348863;33;20356;-80
2023/04/28 13:04:46;;;;;;;;;;;;;;;;;;4347887;33;19943;-78
2023/04/28 13:07:11;;;;;;;;;;;;;;;;;;4348873;33;19946;-78
2023/04/28 13:09:36;;;;;;;;;;;;;;;;;;4349775;33;19994;-79
2023/04/28 13:12:02;;;;;;;;;;;;;;;;;;4349402;33;19947;-78
2023/04/28 13:14:27;;;;;;;;;;;;;;;;;;4346994;33;20342;-78
2023/04/28 13:16:53;;;;;;;;;;;;;;;;;;4348478;33;20296;-78
2023/04/28 13:19:18;;;;;;;;;;;;;;;;;;4347965;33;20321;-77
2023/04/28 13:21:43;;;;;;;;;;;;;;;;;;4348851;33;19939;-78
2023/04/28 13:24:08;;;;;;;;;;;;;;;;;;4349808;33;19939;-77
2023/04/28 13:26:33;;;;;;;;;;;;;;;;;;4349373;33;19939;-77
2023/04/28 13:28:59;;;;;;;;;;;;;;;;;;4348772;33;20390;-78
2023/04/28 13:31:25;;;;;;;;;;;;;;;;;;4347043;33;19935;-79
2023/04/28 13:33:50;;;;;;;;;;;;;;;;;;4349090;33;19938;-79
2023/04/28 13:36:15;;;;;;;;;;;;;;;;;;4348465;33;19990;-78
2023/04/28 13:38:40;;;;;;;;;;;;;;;;;;4347688;33;19982;-78
2023/04/28 13:41:06;;;;;;;;;;;;;;;;;;4354485;33;19946;-78
2023/04/28 13:43:31;;;;;;;;;;;;;;;;;;4356188;33;19938;-79
2023/04/28 13:45:56;;;;;;;;;;;;;;;;;;4348069;33;19994;-78
2023/04/28 13:48:21;;;;;;;;;;;;;;;;;;4348816;33;19945;-79
2023/04/28 13:50:46;;;;;;;;;;;;;;;;;;4348624;33;19943;-79
2023/04/28 13:53:11;;;;;;;;;;;;;;;;;;4346555;33;19954;-80
2023/04/28 13:55:37;;;;;;;;;;;;;;;;;;4348178;33;19949;-78
2023/04/28 13:58:03;;;;;;;;;;;;;;;;;;4348276;33;19939;-78
2023/04/28 14:00:29;;;;;;;;;;;;;;;;;;4347967;33;19953;-78
2023/04/28 14:02:54;;;;;;;;;;;;;;;;;;4346445;33;19931;-78
2023/04/28 14:05:19;;;;;;;;;;;;;;;;;;4347078;33;20256;-79
2023/04/28 14:07:44;;;;;;;;;;;;;;;;;;4347534;33;19939;-79
2023/04/28 14:10:10;;;;;;;;;;;;;;;;;;4347773;33;19939;-79
2023/04/28 14:12:36;;;;;;;;;;;;;;;;;;4347484;33;20375;-79
2023/04/28 14:15:02;;;;;;;;;;;;;;;;;;4346310;33;20354;-79
2023/04/28 14:17:27;;;;;;;;;;;;;;;;;;4346240;33;20339;-80
2023/04/28 14:19:52;;;;;;;;;;;;;;;;;;4346497;33;19938;-81
2023/04/28 14:22:17;;;;;;;;;;;;;;;;;;4347786;33;19934;-79
2023/04/28 14:24:42;;;;;;;;;;;;;;;;;;4348709;33;19943;-79
2023/04/28 14:27:08;;;;;;;;;;;;;;;;;;4347929;33;20313;-80
2023/04/28 14:29:33;;;;;;;;;;;;;;;;;;4348216;33;19950;-81
2023/04/28 14:31:58;;;;;;;;;;;;;;;;;;4348930;33;20050;-81
2023/04/28 14:34:24;;;;;;;;;;;;;;;;;;4346253;33;20320;-81
2023/04/28 14:36:49;;;;;;;;;;;;;;;;;;4348117;33;20285;-81
2023/04/28 14:39:14;;;;;;;;;;;;;;;;;;4347517;33;19977;-81
2023/04/28 14:41:39;;;;;;;;;;;;;;;;;;4346386;33;20346;-81
2023/04/28 14:44:05;;;;;;;;;;;;;;;;;;4347394;33;19943;-80
2023/04/28 14:46:30;;;;;;;;;;;;;;;;;;4346494;33;20288;-81
2023/04/28 14:48:55;;;;;;;;;;;;;;;;;;4352341;33;20009;-81
2023/04/28 14:51:20;;;;;;;;;;;;;;;;;;4350427;33;20272;-82
2023/04/28 14:53:45;;;;;;;;;;;;;;;;;;4347461;33;20020;-81
2023/04/28 14:56:10;;;;;;;;;;;;;;;;;;4348079;32;19957;-81
2023/04/28 14:58:36;;;;;;;;;;;;;;;;;;4358752;32;20016;-82
2023/04/28 15:01:02;;;;;;;;;;;;;;;;;;4363795;32;19961;-82
2023/04/28 15:03:27;;;;;;;;;;;;;;;;;;4351081;32;19989;-81
2023/04/28 15:05:52;;;;;;;;;;;;;;;;;;4359327;32;19946;-81
2023/04/28 15:08:18;;;;;;;;;;;;;;;;;;4358534;32;19949;-82
2023/04/28 15:10:43;;;;;;;;;;;;;;;;;;4347451;32;19943;-81
2023/04/28 15:13:08;;;;;;;;;;;;;;;;;;4347459;32;19939;-80
2023/04/28 15:15:33;;;;;;;;;;;;;;;;;;4358002;32;19943;-81
2023/04/28 15:17:59;;;;;;;;;;;;;;;;;;4346351;33;19939;-81
2023/04/28 15:20:24;;;;;;;;;;;;;;;;;;4347652;32;19934;-80
2023/04/28 15:22:50;;;;;;;;;;;;;;;;;;4358125;32;19998;-81
2023/04/28 15:25:15;;;;;;;;;;;;;;;;;;4348748;33;19935;-80
2023/04/28 15:27:40;;;;;;;;;;;;;;;;;;4348746;33;20359;-80
2023/04/28 15:30:06;;;;;;;;;;;;;;;;;;4347136;32;20000;-80
2023/04/28 15:32:31;;;;;;;;;;;;;;;;;;4358249;32;19943;-81
2023/04/28 15:34:56;;;;;;;;;;;;;;;;;;4358230;32;19973;-81
2023/04/28 15:37:22;;;;;;;;;;;;;;;;;;4358004;32;19955;-81
2023/04/28 15:39:47;;;;;;;;;;;;;;;;;;4357608;32;19974;-81
2023/04/28 15:42:13;;;;;;;;;;;;;;;;;;4346362;33;20289;-80
2023/04/28 15:44:38;;;;;;;;;;;;;;;;;;4357458;32;20058;-81
2023/04/28 15:47:03;;;;;;;;;;;;;;;;;;4347508;32;19939;-81
2023/04/28 15:49:28;;;;;;;;;;;;;;;;;;4349771;32;20035;-82
2023/04/28 15:51:53;;;;;;;;;;;;;;;;;;4349716;32;19935;-82
2023/04/28 15:54:18;;;;;;;;;;;;;;;;;;4351542;33;19985;-82
2023/04/28 15:56:44;;;;;;;;;;;;;;;;;;4357296;33;19949;-81
2023/04/28 15:59:13;;;;;;;;;;;;;;;;;;4351045;33;20279;-81
2023/04/28 16:01:38;;;;;;;;;;;;;;;;;;4347173;33;19973;-84
2023/04/28 16:04:04;;;;;;;;;;;;;;;;;;4347683;33;19943;-80
2023/04/28 16:06:30;;;;;;;;;;;;;;;;;;4346661;33;19939;-82
2023/04/28 16:08:55;;;;;;;;;;;;;;;;;;4347220;33;20303;-78
2023/04/28 16:11:20;;;;;;;;;;;;;;;;;;4352498;33;19943;-78
2023/04/28 16:13:46;;;;;;;;;;;;;;;;;;4348666;33;19974;-79
2023/04/28 16:16:11;;;;;;;;;;;;;;;;;;4346899;33;19990;-78
2023/04/28 16:18:36;;;;;;;;;;;;;;;;;;4346859;33;20004;-79
2023/04/28 16:21:01;;;;;;;;;;;;;;;;;;4345602;33;19934;-79
2023/04/28 16:23:26;;;;;;;;;;;;;;;;;;4346884;33;20009;-80
2023/04/28 16:25:52;;;;;;;;;;;;;;;;;;4346375;33;19949;-81
2023/04/28 16:28:18;;;;;;;;;;;;;;;;;;4345908;33;19946;-79
2023/04/28 16:30:43;;;;;;;;;;;;;;;;;;4345207;33;19934;-79